DLH139 ENCN-EDDS
Flight info
| Callsign | DLH139 |
|---|---|
| Flight time | 1h 36m |
| Altitude | 34000 |
| Route | RASVI M609 BAVTA/N0450F350 P992 ATTUS DCT BASUM/N0445F340 DCT TIVUN/N0447F350 DCT KRH KRH1E |
| Aircraft | A321/M-SDE3FGHIRWY/LB1 |
Departure
| Time | 2026-04-16 07:46 |
|---|---|
| Airport | Kristiansand Airport (ENCN) |
Arrival
| Time | 2026-04-16 09:22 |
|---|---|
| Airport | Stuttgart Airport (EDDS) |
| Time | Latitude | Longitude | Altitude | Speed | Heading |
|---|---|---|---|---|---|
| 2026-04-16 07:38 | 58.20144 | 8.07427 | 47 ft | 0 kts | 170° |
| 2026-04-16 07:42 | 58.20139 | 8.07428 | 50 ft | 2 kts | 170° |
| 2026-04-16 07:42 | 58.20123 | 8.07434 | 48 ft | 3 kts | 170° |
| 2026-04-16 07:43 | 58.20097 | 8.07442 | 50 ft | 4 kts | 170° |
| 2026-04-16 07:43 | 58.20062 | 8.07442 | 48 ft | 6 kts | 192° |
| 2026-04-16 07:43 | 58.20023 | 8.07405 | 50 ft | 7 kts | 208° |
| 2026-04-16 07:43 | 58.19974 | 8.07360 | 50 ft | 9 kts | 197° |
| 2026-04-16 07:44 | 58.19912 | 8.07369 | 49 ft | 10 kts | 163° |
| 2026-04-16 07:44 | 58.19844 | 8.07412 | 48 ft | 11 kts | 160° |
| 2026-04-16 07:44 | 58.19770 | 8.07460 | 49 ft | 12 kts | 161° |
| 2026-04-16 07:44 | 58.19707 | 8.07550 | 50 ft | 12 kts | 101° |
| 2026-04-16 07:45 | 58.19746 | 8.07640 | 50 ft | 0 kts | 33° |
| 2026-04-16 07:45 | 58.19747 | 8.07641 | 50 ft | 1 kts | 33° |
| 2026-04-16 07:45 | 58.19888 | 8.07827 | 47 ft | 63 kts | 35° |
| 2026-04-16 07:45 | 58.20447 | 8.08563 | 52 ft | 130 kts | 35° |
| 2026-04-16 07:46 | 58.21258 | 8.09682 | 606 ft | 143 kts | 40° |
| 2026-04-16 07:46 | 58.22079 | 8.10791 | 1402 ft | 147 kts | 42° |
| 2026-04-16 07:46 | 58.22970 | 8.12002 | 1782 ft | 169 kts | 40° |
| 2026-04-16 07:46 | 58.23978 | 8.13360 | 2145 ft | 186 kts | 40° |
| 2026-04-16 07:47 | 58.25076 | 8.14828 | 2455 ft | 202 kts | 40° |
| 2026-04-16 07:47 | 58.26278 | 8.16466 | 2625 ft | 224 kts | 40° |
| 2026-04-16 07:47 | 58.27576 | 8.18204 | 3193 ft | 230 kts | 39° |
| 2026-04-16 07:47 | 58.28901 | 8.19959 | 3868 ft | 234 kts | 43° |
| 2026-04-16 07:48 | 58.29876 | 8.22333 | 4530 ft | 229 kts | 76° |
| 2026-04-16 07:48 | 58.29865 | 8.25279 | 5149 ft | 226 kts | 115° |
| 2026-04-16 07:48 | 58.29041 | 8.27842 | 5800 ft | 229 kts | 128° |
| 2026-04-16 07:48 | 58.28052 | 8.30234 | 6531 ft | 231 kts | 130° |
| 2026-04-16 07:49 | 58.27004 | 8.32560 | 7187 ft | 232 kts | 140° |
| 2026-04-16 07:49 | 58.25557 | 8.33910 | 7745 ft | 239 kts | 171° |
| 2026-04-16 07:49 | 58.23890 | 8.33647 | 8348 ft | 244 kts | 194° |
| 2026-04-16 07:49 | 58.22365 | 8.32309 | 8998 ft | 250 kts | 214° |
| 2026-04-16 07:50 | 58.20949 | 8.30294 | 9725 ft | 250 kts | 217° |
| 2026-04-16 07:50 | 58.19602 | 8.28290 | 10418 ft | 250 kts | 218° |
| 2026-04-16 07:50 | 58.18240 | 8.26231 | 11005 ft | 252 kts | 218° |
| 2026-04-16 07:50 | 58.16866 | 8.24131 | 11607 ft | 254 kts | 218° |
| 2026-04-16 07:51 | 58.15484 | 8.22019 | 12207 ft | 256 kts | 218° |
| 2026-04-16 07:51 | 58.14081 | 8.19877 | 12753 ft | 261 kts | 218° |
| 2026-04-16 07:51 | 58.12658 | 8.17706 | 13334 ft | 265 kts | 218° |
| 2026-04-16 07:51 | 58.11206 | 8.15499 | 13892 ft | 269 kts | 217° |
| 2026-04-16 07:52 | 58.09742 | 8.13282 | 14489 ft | 270 kts | 218° |
| 2026-04-16 07:52 | 58.08269 | 8.11051 | 15052 ft | 271 kts | 218° |
| 2026-04-16 07:52 | 58.06796 | 8.08819 | 15620 ft | 272 kts | 218° |
| 2026-04-16 07:52 | 58.05286 | 8.06665 | 16127 ft | 274 kts | 211° |
| 2026-04-16 07:53 | 58.03537 | 8.05189 | 16562 ft | 281 kts | 198° |
| 2026-04-16 07:53 | 58.01546 | 8.04524 | 16691 ft | 298 kts | 189° |
| 2026-04-16 07:53 | 57.99433 | 8.04031 | 16822 ft | 314 kts | 189° |
| 2026-04-16 07:53 | 57.97217 | 8.03510 | 16956 ft | 328 kts | 189° |
| 2026-04-16 07:54 | 57.94900 | 8.02957 | 17085 ft | 343 kts | 189° |
| 2026-04-16 07:54 | 57.92485 | 8.02374 | 17221 ft | 356 kts | 189° |
| 2026-04-16 07:54 | 57.90005 | 8.01776 | 17536 ft | 362 kts | 189° |
| 2026-04-16 07:54 | 57.87487 | 8.01174 | 17985 ft | 366 kts | 189° |
| 2026-04-16 07:55 | 57.84955 | 8.00571 | 18451 ft | 368 kts | 189° |
| 2026-04-16 07:55 | 57.82404 | 7.99968 | 18856 ft | 371 kts | 189° |
| 2026-04-16 07:55 | 57.79836 | 7.99361 | 19254 ft | 373 kts | 190° |
| 2026-04-16 07:55 | 57.77252 | 7.98750 | 19641 ft | 375 kts | 190° |
| 2026-04-16 07:56 | 57.74687 | 7.98138 | 20040 ft | 378 kts | 190° |
| 2026-04-16 07:56 | 57.72152 | 7.97531 | 20423 ft | 380 kts | 190° |
| 2026-04-16 07:56 | 57.69518 | 7.96903 | 20815 ft | 382 kts | 190° |
| 2026-04-16 07:56 | 57.66871 | 7.96276 | 21186 ft | 385 kts | 190° |
| 2026-04-16 07:57 | 57.64205 | 7.95646 | 21571 ft | 387 kts | 190° |
| 2026-04-16 07:57 | 57.61518 | 7.95113 | 21940 ft | 391 kts | 185° |
| 2026-04-16 07:57 | 57.58776 | 7.95358 | 22297 ft | 398 kts | 175° |
| 2026-04-16 07:57 | 57.56033 | 7.96246 | 22663 ft | 402 kts | 174° |
| 2026-04-16 07:58 | 57.53269 | 7.97158 | 23027 ft | 405 kts | 174° |
| 2026-04-16 07:58 | 57.50485 | 7.98063 | 23389 ft | 407 kts | 174° |
| 2026-04-16 07:58 | 57.47678 | 7.98963 | 23737 ft | 410 kts | 174° |
| 2026-04-16 07:58 | 57.44860 | 7.99863 | 24043 ft | 412 kts | 174° |
| 2026-04-16 07:59 | 57.42026 | 8.00765 | 24370 ft | 413 kts | 174° |
| 2026-04-16 07:59 | 57.39188 | 8.01666 | 24689 ft | 415 kts | 174° |
| 2026-04-16 07:59 | 57.36328 | 8.02578 | 24945 ft | 418 kts | 174° |
| 2026-04-16 07:59 | 57.33455 | 8.03497 | 25237 ft | 420 kts | 174° |
| 2026-04-16 08:00 | 57.30565 | 8.04424 | 25544 ft | 422 kts | 174° |
| 2026-04-16 08:00 | 57.27663 | 8.05297 | 25846 ft | 423 kts | 175° |
| 2026-04-16 08:00 | 57.24740 | 8.05959 | 26150 ft | 424 kts | 178° |
| 2026-04-16 08:00 | 57.22795 | 8.06306 | 26341 ft | 424 kts | 179° |
| 2026-04-16 08:01 | 57.19849 | 8.06744 | 26640 ft | 426 kts | 179° |
| 2026-04-16 08:01 | 57.16888 | 8.07148 | 26932 ft | 427 kts | 179° |
| 2026-04-16 08:01 | 57.13916 | 8.07570 | 27232 ft | 429 kts | 179° |
| 2026-04-16 08:01 | 57.10935 | 8.08032 | 27503 ft | 431 kts | 179° |
| 2026-04-16 08:02 | 57.07937 | 8.08532 | 27772 ft | 434 kts | 178° |
| 2026-04-16 08:02 | 57.01902 | 8.09589 | 28327 ft | 437 kts | 178° |
| 2026-04-16 08:02 | 56.98863 | 8.10129 | 28598 ft | 439 kts | 178° |
| 2026-04-16 08:03 | 56.95817 | 8.10667 | 28858 ft | 441 kts | 178° |
| 2026-04-16 08:03 | 56.92754 | 8.11197 | 29120 ft | 442 kts | 178° |
| 2026-04-16 08:03 | 56.89722 | 8.11712 | 29344 ft | 444 kts | 179° |
| 2026-04-16 08:03 | 56.86642 | 8.12229 | 29574 ft | 445 kts | 179° |
| 2026-04-16 08:04 | 56.83547 | 8.12745 | 29765 ft | 447 kts | 178° |
| 2026-04-16 08:04 | 56.80439 | 8.13265 | 29925 ft | 450 kts | 178° |
| 2026-04-16 08:04 | 56.77316 | 8.13796 | 30158 ft | 451 kts | 178° |
| 2026-04-16 08:04 | 56.74196 | 8.14327 | 30418 ft | 450 kts | 178° |
| 2026-04-16 08:05 | 56.71082 | 8.14855 | 30668 ft | 449 kts | 178° |
| 2026-04-16 08:05 | 56.67966 | 8.15379 | 30913 ft | 449 kts | 178° |
| 2026-04-16 08:05 | 56.64855 | 8.15902 | 31136 ft | 449 kts | 178° |
| 2026-04-16 08:05 | 56.61739 | 8.16425 | 31291 ft | 451 kts | 178° |
| 2026-04-16 08:06 | 56.58611 | 8.16950 | 31506 ft | 451 kts | 178° |
| 2026-04-16 08:06 | 56.55485 | 8.17475 | 31736 ft | 451 kts | 178° |
| 2026-04-16 08:06 | 56.52369 | 8.17993 | 31971 ft | 450 kts | 178° |
| 2026-04-16 08:06 | 56.49250 | 8.18503 | 32207 ft | 449 kts | 178° |
| 2026-04-16 08:07 | 56.46136 | 8.19004 | 32443 ft | 449 kts | 179° |
| 2026-04-16 08:07 | 56.43029 | 8.19452 | 32674 ft | 448 kts | 179° |
| 2026-04-16 08:07 | 56.39921 | 8.19859 | 32893 ft | 447 kts | 179° |
| 2026-04-16 08:07 | 56.36814 | 8.20243 | 33125 ft | 447 kts | 179° |
| 2026-04-16 08:08 | 56.33714 | 8.20621 | 33341 ft | 446 kts | 179° |
| 2026-04-16 08:08 | 56.30623 | 8.21002 | 33570 ft | 446 kts | 179° |
| 2026-04-16 08:08 | 56.27532 | 8.21389 | 33800 ft | 444 kts | 180° |
| 2026-04-16 08:08 | 56.24451 | 8.21783 | 34034 ft | 444 kts | 180° |
| 2026-04-16 08:09 | 56.18318 | 8.22586 | 34120 ft | 440 kts | 179° |
| 2026-04-16 08:09 | 56.12224 | 8.23395 | 34119 ft | 439 kts | 180° |
| 2026-04-16 08:10 | 56.06175 | 8.24177 | 34122 ft | 438 kts | 180° |
| 2026-04-16 08:10 | 56.00091 | 8.24959 | 34120 ft | 438 kts | 180° |
| 2026-04-16 08:11 | 55.94010 | 8.25733 | 34119 ft | 438 kts | 180° |
| 2026-04-16 08:11 | 55.87931 | 8.26497 | 34123 ft | 438 kts | 180° |
| 2026-04-16 08:12 | 55.81841 | 8.27263 | 34129 ft | 438 kts | 179° |
| 2026-04-16 08:12 | 55.75761 | 8.28053 | 34132 ft | 438 kts | 179° |
| 2026-04-16 08:13 | 55.69676 | 8.28826 | 34137 ft | 438 kts | 180° |
| 2026-04-16 08:13 | 55.63589 | 8.29590 | 34138 ft | 438 kts | 180° |
| 2026-04-16 08:14 | 55.57591 | 8.31856 | 34138 ft | 446 kts | 162° |
| 2026-04-16 08:14 | 55.51810 | 8.35930 | 34136 ft | 447 kts | 162° |
| 2026-04-16 08:15 | 55.46063 | 8.39936 | 34104 ft | 448 kts | 162° |
| 2026-04-16 08:15 | 55.40244 | 8.43967 | 34116 ft | 450 kts | 162° |
| 2026-04-16 08:16 | 55.34415 | 8.48000 | 34119 ft | 451 kts | 162° |
| 2026-04-16 08:16 | 55.28565 | 8.52035 | 34123 ft | 451 kts | 162° |
| 2026-04-16 08:17 | 55.22717 | 8.56040 | 34127 ft | 452 kts | 163° |
| 2026-04-16 08:17 | 55.16855 | 8.60040 | 34124 ft | 452 kts | 163° |
| 2026-04-16 08:19 | 54.93427 | 8.75938 | 34110 ft | 452 kts | 164° |
| 2026-04-16 08:20 | 54.87327 | 8.78241 | 34113 ft | 442 kts | 182° |
| 2026-04-16 08:20 | 54.81238 | 8.78294 | 34118 ft | 441 kts | 185° |
| 2026-04-16 08:21 | 54.75099 | 8.78312 | 34120 ft | 442 kts | 184° |
| 2026-04-16 08:21 | 54.68939 | 8.78338 | 34107 ft | 442 kts | 184° |
| 2026-04-16 08:22 | 54.62786 | 8.78350 | 34116 ft | 442 kts | 185° |
| 2026-04-16 08:22 | 54.56620 | 8.78361 | 34128 ft | 443 kts | 185° |
| 2026-04-16 08:23 | 54.50464 | 8.78388 | 34133 ft | 443 kts | 184° |
| 2026-04-16 08:23 | 54.44341 | 8.78408 | 34153 ft | 443 kts | 185° |
| 2026-04-16 08:24 | 54.38137 | 8.78422 | 34127 ft | 443 kts | 185° |
| 2026-04-16 08:24 | 54.31972 | 8.78436 | 34139 ft | 443 kts | 185° |
| 2026-04-16 08:25 | 54.25850 | 8.78452 | 34144 ft | 443 kts | 185° |
| 2026-04-16 08:25 | 54.19685 | 8.78465 | 34143 ft | 443 kts | 185° |
| 2026-04-16 08:26 | 54.13512 | 8.78493 | 34137 ft | 443 kts | 185° |
| 2026-04-16 08:26 | 54.07351 | 8.78515 | 34142 ft | 443 kts | 185° |
| 2026-04-16 08:27 | 54.01182 | 8.78522 | 34141 ft | 443 kts | 185° |
| 2026-04-16 08:27 | 53.95020 | 8.78529 | 34143 ft | 443 kts | 185° |
| 2026-04-16 08:28 | 53.88855 | 8.78542 | 34136 ft | 443 kts | 185° |
| 2026-04-16 08:28 | 53.82700 | 8.78566 | 34148 ft | 442 kts | 185° |
| 2026-04-16 08:29 | 53.76541 | 8.78600 | 34150 ft | 442 kts | 185° |
| 2026-04-16 08:29 | 53.70397 | 8.78624 | 34157 ft | 442 kts | 185° |
| 2026-04-16 08:30 | 53.64253 | 8.78640 | 34145 ft | 441 kts | 185° |
| 2026-04-16 08:30 | 53.58116 | 8.78654 | 34160 ft | 441 kts | 185° |
| 2026-04-16 08:31 | 53.52019 | 8.78668 | 34169 ft | 441 kts | 185° |
| 2026-04-16 08:31 | 53.45885 | 8.78679 | 34167 ft | 441 kts | 185° |
| 2026-04-16 08:32 | 53.39753 | 8.78694 | 34140 ft | 441 kts | 185° |
| 2026-04-16 08:32 | 53.33618 | 8.78708 | 34146 ft | 441 kts | 185° |
| 2026-04-16 08:33 | 53.27474 | 8.78721 | 34155 ft | 441 kts | 185° |
| 2026-04-16 08:33 | 53.21325 | 8.78737 | 34174 ft | 442 kts | 185° |
| 2026-04-16 08:34 | 53.15181 | 8.78761 | 34166 ft | 442 kts | 185° |
| 2026-04-16 08:34 | 53.09032 | 8.78776 | 34171 ft | 442 kts | 185° |
| 2026-04-16 08:35 | 53.02924 | 8.78789 | 34179 ft | 442 kts | 185° |
| 2026-04-16 08:35 | 52.96777 | 8.78798 | 34179 ft | 442 kts | 185° |
| 2026-04-16 08:36 | 52.90631 | 8.78817 | 34166 ft | 441 kts | 186° |
| 2026-04-16 08:36 | 52.84486 | 8.78834 | 34167 ft | 441 kts | 186° |
| 2026-04-16 08:37 | 52.78353 | 8.78756 | 34175 ft | 438 kts | 191° |
| 2026-04-16 08:37 | 52.72489 | 8.76724 | 34175 ft | 429 kts | 201° |
| 2026-04-16 08:38 | 52.66741 | 8.74091 | 34148 ft | 429 kts | 201° |
| 2026-04-16 08:38 | 52.60989 | 8.71472 | 34168 ft | 429 kts | 201° |
| 2026-04-16 08:39 | 52.55236 | 8.68861 | 34179 ft | 429 kts | 201° |
| 2026-04-16 08:39 | 52.49487 | 8.66260 | 34182 ft | 428 kts | 201° |
| 2026-04-16 08:40 | 52.43735 | 8.63670 | 34167 ft | 428 kts | 201° |
| 2026-04-16 08:40 | 52.38028 | 8.61107 | 34178 ft | 428 kts | 201° |
| 2026-04-16 08:41 | 52.32282 | 8.58530 | 34187 ft | 428 kts | 201° |
| 2026-04-16 08:41 | 52.26543 | 8.55968 | 34190 ft | 428 kts | 201° |
| 2026-04-16 08:42 | 52.20801 | 8.53403 | 34166 ft | 428 kts | 201° |
| 2026-04-16 08:42 | 52.15059 | 8.50847 | 34185 ft | 428 kts | 201° |
| 2026-04-16 08:43 | 52.09320 | 8.48300 | 34192 ft | 428 kts | 201° |
| 2026-04-16 08:43 | 52.03579 | 8.45753 | 34200 ft | 428 kts | 201° |
| 2026-04-16 08:44 | 51.97837 | 8.43215 | 34184 ft | 428 kts | 201° |
| 2026-04-16 08:44 | 51.92086 | 8.40706 | 34193 ft | 428 kts | 201° |
| 2026-04-16 08:45 | 51.86338 | 8.38191 | 34208 ft | 428 kts | 201° |
| 2026-04-16 08:45 | 51.80595 | 8.35670 | 34210 ft | 428 kts | 201° |
| 2026-04-16 08:46 | 51.74849 | 8.33152 | 34190 ft | 428 kts | 201° |
| 2026-04-16 08:46 | 51.69102 | 8.30656 | 34201 ft | 428 kts | 201° |
| 2026-04-16 08:47 | 51.63347 | 8.28155 | 34208 ft | 428 kts | 201° |
| 2026-04-16 08:47 | 51.57628 | 8.25677 | 34224 ft | 428 kts | 200° |
| 2026-04-16 08:48 | 51.51865 | 8.23194 | 34200 ft | 428 kts | 200° |
| 2026-04-16 08:48 | 51.46103 | 8.20717 | 34211 ft | 429 kts | 200° |
| 2026-04-16 08:49 | 51.40333 | 8.18230 | 34217 ft | 429 kts | 200° |
| 2026-04-16 08:49 | 51.34558 | 8.15757 | 34219 ft | 430 kts | 200° |
| 2026-04-16 08:50 | 51.29755 | 8.13716 | 34226 ft | 430 kts | 200° |
| 2026-04-16 08:50 | 51.23966 | 8.11243 | 34217 ft | 430 kts | 201° |
| 2026-04-16 08:51 | 51.18169 | 8.08752 | 34214 ft | 432 kts | 201° |
| 2026-04-16 08:51 | 51.12354 | 8.06288 | 34223 ft | 433 kts | 201° |
| 2026-04-16 08:52 | 51.06529 | 8.03841 | 34227 ft | 433 kts | 201° |
| 2026-04-16 08:52 | 51.00690 | 8.01382 | 34211 ft | 435 kts | 201° |
| 2026-04-16 08:53 | 50.94798 | 7.99080 | 34218 ft | 441 kts | 194° |
| 2026-04-16 08:53 | 50.88587 | 7.99235 | 34225 ft | 457 kts | 174° |
| 2026-04-16 08:54 | 50.82352 | 8.01277 | 34243 ft | 457 kts | 174° |
| 2026-04-16 08:54 | 50.76162 | 8.03276 | 34261 ft | 456 kts | 174° |
| 2026-04-16 08:55 | 50.69942 | 8.05279 | 34267 ft | 456 kts | 174° |
| 2026-04-16 08:55 | 50.63729 | 8.07280 | 34264 ft | 455 kts | 174° |
| 2026-04-16 08:56 | 50.57523 | 8.09283 | 34239 ft | 455 kts | 173° |
| 2026-04-16 08:56 | 50.51307 | 8.11283 | 34241 ft | 456 kts | 173° |
| 2026-04-16 08:57 | 50.45072 | 8.13275 | 33894 ft | 459 kts | 174° |
| 2026-04-16 08:57 | 50.41943 | 8.14269 | 33246 ft | 457 kts | 174° |
| 2026-04-16 08:57 | 50.38843 | 8.15258 | 32761 ft | 452 kts | 174° |
| 2026-04-16 08:58 | 50.35777 | 8.16238 | 32224 ft | 448 kts | 173° |
| 2026-04-16 08:58 | 50.32732 | 8.17212 | 31746 ft | 444 kts | 174° |
| 2026-04-16 08:58 | 50.29721 | 8.18171 | 31236 ft | 440 kts | 174° |
| 2026-04-16 08:58 | 50.26728 | 8.19123 | 30733 ft | 437 kts | 174° |
| 2026-04-16 08:59 | 50.23761 | 8.20063 | 30218 ft | 433 kts | 174° |
| 2026-04-16 08:59 | 50.20820 | 8.20992 | 29685 ft | 429 kts | 174° |
| 2026-04-16 08:59 | 50.17919 | 8.21906 | 29208 ft | 423 kts | 174° |
| 2026-04-16 08:59 | 50.15045 | 8.22807 | 28726 ft | 418 kts | 174° |
| 2026-04-16 09:00 | 50.12208 | 8.23697 | 28225 ft | 414 kts | 174° |
| 2026-04-16 09:00 | 50.09408 | 8.24579 | 27791 ft | 408 kts | 174° |
| 2026-04-16 09:00 | 50.06636 | 8.25449 | 27340 ft | 404 kts | 174° |
| 2026-04-16 09:00 | 50.03893 | 8.26312 | 26903 ft | 400 kts | 174° |
| 2026-04-16 09:01 | 49.98531 | 8.27996 | 26057 ft | 392 kts | 174° |
| 2026-04-16 09:01 | 49.95875 | 8.28829 | 25638 ft | 388 kts | 174° |
| 2026-04-16 09:01 | 49.93242 | 8.29654 | 25240 ft | 384 kts | 174° |
| 2026-04-16 09:02 | 49.90641 | 8.30468 | 24847 ft | 380 kts | 174° |
| 2026-04-16 09:02 | 49.88060 | 8.31272 | 24446 ft | 376 kts | 174° |
| 2026-04-16 09:02 | 49.85511 | 8.32060 | 24062 ft | 372 kts | 174° |
| 2026-04-16 09:02 | 49.82987 | 8.32842 | 23613 ft | 369 kts | 174° |
| 2026-04-16 09:03 | 49.80486 | 8.33624 | 23206 ft | 364 kts | 174° |
| 2026-04-16 09:03 | 49.78021 | 8.34397 | 22803 ft | 359 kts | 174° |
| 2026-04-16 09:03 | 49.75581 | 8.35159 | 22408 ft | 356 kts | 174° |
| 2026-04-16 09:03 | 49.73160 | 8.35910 | 21990 ft | 354 kts | 174° |
| 2026-04-16 09:04 | 49.70756 | 8.36650 | 21596 ft | 351 kts | 173° |
| 2026-04-16 09:04 | 49.68366 | 8.37384 | 21175 ft | 349 kts | 173° |
| 2026-04-16 09:04 | 49.65986 | 8.38113 | 20747 ft | 347 kts | 173° |
| 2026-04-16 09:04 | 49.63632 | 8.38837 | 20347 ft | 344 kts | 173° |
| 2026-04-16 09:05 | 49.61286 | 8.39560 | 19934 ft | 342 kts | 173° |
| 2026-04-16 09:05 | 49.58987 | 8.40270 | 19528 ft | 340 kts | 173° |
| 2026-04-16 09:05 | 49.56669 | 8.40989 | 19115 ft | 338 kts | 172° |
| 2026-04-16 09:05 | 49.54366 | 8.41701 | 18707 ft | 336 kts | 172° |
| 2026-04-16 09:06 | 49.52078 | 8.42402 | 18261 ft | 334 kts | 172° |
| 2026-04-16 09:06 | 49.49809 | 8.43094 | 17845 ft | 331 kts | 172° |
| 2026-04-16 09:06 | 49.47558 | 8.43782 | 17446 ft | 328 kts | 172° |
| 2026-04-16 09:06 | 49.45323 | 8.44464 | 17042 ft | 326 kts | 172° |
| 2026-04-16 09:07 | 49.43104 | 8.45144 | 16641 ft | 325 kts | 172° |
| 2026-04-16 09:07 | 49.40892 | 8.45825 | 16248 ft | 323 kts | 172° |
| 2026-04-16 09:07 | 49.38694 | 8.46499 | 15861 ft | 321 kts | 172° |
| 2026-04-16 09:07 | 49.36509 | 8.47166 | 15464 ft | 320 kts | 172° |
| 2026-04-16 09:08 | 49.34334 | 8.47824 | 15069 ft | 318 kts | 172° |
| 2026-04-16 09:08 | 49.32167 | 8.48477 | 14676 ft | 317 kts | 172° |
| 2026-04-16 09:08 | 49.30009 | 8.49131 | 14286 ft | 315 kts | 171° |
| 2026-04-16 09:08 | 49.27861 | 8.49786 | 13880 ft | 314 kts | 171° |
| 2026-04-16 09:09 | 49.25725 | 8.50437 | 13470 ft | 311 kts | 171° |
| 2026-04-16 09:09 | 49.23604 | 8.51080 | 13088 ft | 310 kts | 171° |
| 2026-04-16 09:09 | 49.21525 | 8.51707 | 12712 ft | 308 kts | 171° |
| 2026-04-16 09:09 | 49.19399 | 8.52347 | 12326 ft | 306 kts | 171° |
| 2026-04-16 09:10 | 49.17337 | 8.52970 | 11956 ft | 305 kts | 170° |
| 2026-04-16 09:10 | 49.15260 | 8.53599 | 11584 ft | 304 kts | 170° |
| 2026-04-16 09:10 | 49.13194 | 8.54226 | 11212 ft | 302 kts | 170° |
| 2026-04-16 09:10 | 49.11135 | 8.54852 | 10837 ft | 301 kts | 170° |
| 2026-04-16 09:11 | 49.09086 | 8.55475 | 10493 ft | 299 kts | 169° |
| 2026-04-16 09:11 | 49.07049 | 8.56091 | 10405 ft | 300 kts | 169° |
| 2026-04-16 09:11 | 49.05004 | 8.56708 | 10279 ft | 300 kts | 169° |
| 2026-04-16 09:11 | 49.02941 | 8.57328 | 9959 ft | 304 kts | 169° |
| 2026-04-16 09:12 | 49.00879 | 8.57946 | 9552 ft | 301 kts | 169° |
| 2026-04-16 09:12 | 48.98877 | 8.58864 | 9147 ft | 300 kts | 156° |
| 2026-04-16 09:12 | 48.97072 | 8.60386 | 8901 ft | 295 kts | 150° |
| 2026-04-16 09:12 | 48.95303 | 8.61970 | 8659 ft | 294 kts | 150° |
| 2026-04-16 09:13 | 48.93546 | 8.63533 | 8417 ft | 291 kts | 150° |
| 2026-04-16 09:13 | 48.91803 | 8.65079 | 8162 ft | 289 kts | 150° |
| 2026-04-16 09:13 | 48.90091 | 8.66594 | 7907 ft | 289 kts | 150° |
| 2026-04-16 09:13 | 48.88356 | 8.68128 | 7673 ft | 288 kts | 150° |
| 2026-04-16 09:14 | 48.86631 | 8.69654 | 7421 ft | 285 kts | 150° |
| 2026-04-16 09:14 | 48.84921 | 8.71166 | 7180 ft | 283 kts | 150° |
| 2026-04-16 09:14 | 48.83220 | 8.72663 | 6987 ft | 282 kts | 150° |
| 2026-04-16 09:14 | 48.81524 | 8.74157 | 6785 ft | 281 kts | 150° |
| 2026-04-16 09:15 | 48.79836 | 8.75641 | 6579 ft | 280 kts | 150° |
| 2026-04-16 09:15 | 48.78153 | 8.77120 | 6370 ft | 280 kts | 150° |
| 2026-04-16 09:15 | 48.76469 | 8.78594 | 6163 ft | 279 kts | 150° |
| 2026-04-16 09:15 | 48.74788 | 8.80064 | 5968 ft | 279 kts | 151° |
| 2026-04-16 09:16 | 48.73107 | 8.81536 | 5762 ft | 278 kts | 150° |
| 2026-04-16 09:16 | 48.71445 | 8.82996 | 5566 ft | 276 kts | 150° |
| 2026-04-16 09:16 | 48.69779 | 8.84459 | 5208 ft | 276 kts | 150° |
| 2026-04-16 09:16 | 48.68132 | 8.85902 | 4945 ft | 270 kts | 150° |
| 2026-04-16 09:17 | 48.66546 | 8.87307 | 4811 ft | 258 kts | 146° |
| 2026-04-16 09:17 | 48.65239 | 8.89072 | 4665 ft | 247 kts | 128° |
| 2026-04-16 09:17 | 48.64376 | 8.91238 | 4536 ft | 244 kts | 111° |
| 2026-04-16 09:17 | 48.63961 | 8.93691 | 4391 ft | 236 kts | 95° |
| 2026-04-16 09:18 | 48.64024 | 8.96103 | 4225 ft | 226 kts | 78° |
| 2026-04-16 09:18 | 48.64429 | 8.98361 | 4136 ft | 215 kts | 73° |
| 2026-04-16 09:18 | 48.64833 | 9.00463 | 3945 ft | 203 kts | 72° |
| 2026-04-16 09:18 | 48.65216 | 9.02452 | 3700 ft | 191 kts | 73° |
| 2026-04-16 09:19 | 48.65572 | 9.04307 | 3476 ft | 174 kts | 73° |
| 2026-04-16 09:19 | 48.65898 | 9.06007 | 3236 ft | 164 kts | 73° |
| 2026-04-16 09:19 | 48.66212 | 9.07645 | 3021 ft | 160 kts | 74° |
| 2026-04-16 09:19 | 48.66520 | 9.09257 | 2796 ft | 158 kts | 74° |
| 2026-04-16 09:20 | 48.66826 | 9.10854 | 2586 ft | 158 kts | 73° |
| 2026-04-16 09:20 | 48.67127 | 9.12433 | 2375 ft | 155 kts | 73° |
| 2026-04-16 09:20 | 48.67423 | 9.13994 | 2157 ft | 153 kts | 73° |
| 2026-04-16 09:20 | 48.67720 | 9.15538 | 1961 ft | 152 kts | 73° |
| 2026-04-16 09:21 | 48.68012 | 9.17076 | 1762 ft | 153 kts | 73° |
| 2026-04-16 09:21 | 48.68304 | 9.18611 | 1566 ft | 151 kts | 73° |
| 2026-04-16 09:21 | 48.68594 | 9.20133 | 1356 ft | 151 kts | 73° |
| 2026-04-16 09:21 | 48.68869 | 9.21556 | 1285 ft | 122 kts | 73° |
| 2026-04-16 09:22 | 48.69061 | 9.22534 | 1285 ft | 72 kts | 74° |
| 2026-04-16 09:22 | 48.69177 | 9.22944 | 1288 ft | 29 kts | 42° |
| 2026-04-16 09:22 | 48.69300 | 9.23137 | 1285 ft | 23 kts | 29° |
| 2026-04-16 09:22 | 48.69415 | 9.23082 | 1287 ft | 14 kts | 282° |
| 2026-04-16 09:23 | 48.69392 | 9.22969 | 1288 ft | 12 kts | 253° |
| 2026-04-16 09:23 | 48.69370 | 9.22844 | 1286 ft | 13 kts | 255° |
| 2026-04-16 09:23 | 48.69344 | 9.22707 | 1287 ft | 14 kts | 253° |
| 2026-04-16 09:23 | 48.69315 | 9.22558 | 1285 ft | 15 kts | 254° |
| 2026-04-16 09:24 | 48.69282 | 9.22384 | 1285 ft | 20 kts | 254° |
| 2026-04-16 09:24 | 48.69236 | 9.22142 | 1285 ft | 27 kts | 254° |
| 2026-04-16 09:24 | 48.69178 | 9.21836 | 1285 ft | 33 kts | 254° |
| 2026-04-16 09:24 | 48.69114 | 9.21489 | 1287 ft | 34 kts | 254° |
| 2026-04-16 09:25 | 48.69044 | 9.21147 | 1286 ft | 34 kts | 253° |
| 2026-04-16 09:25 | 48.68982 | 9.20805 | 1285 ft | 34 kts | 254° |
| 2026-04-16 09:25 | 48.68920 | 9.20471 | 1285 ft | 33 kts | 255° |
| 2026-04-16 09:25 | 48.68854 | 9.20136 | 1287 ft | 33 kts | 254° |
| 2026-04-16 09:26 | 48.68828 | 9.19915 | 1285 ft | 18 kts | 295° |
| 2026-04-16 09:26 | 48.68884 | 9.19802 | 1285 ft | 13 kts | 267° |
| 2026-04-16 09:26 | 48.68870 | 9.19687 | 1285 ft | 6 kts | 302° |
| 2026-04-16 09:26 | 48.68917 | 9.19656 | 1285 ft | 8 kts | 344° |
| 2026-04-16 09:27 | 48.68939 | 9.19647 | 1285 ft | 0 kts | 344° |